createdAt,value
2022-09-21T00:01:09.737Z,5.93
2022-09-21T00:03:38.301Z,5.82
2022-09-21T00:06:07.393Z,6.78
2022-09-21T00:08:35.649Z,6.53
2022-09-21T00:11:04.685Z,6.28
2022-09-21T00:13:33.551Z,7.22
2022-09-21T00:16:06.277Z,6.55
2022-09-21T00:18:35.462Z,6.45
2022-09-21T00:21:07.171Z,6.95
2022-09-21T00:23:36.240Z,6.10
2022-09-21T00:26:09.062Z,7.25
2022-09-21T00:28:37.349Z,8.07
2022-09-21T00:31:09.607Z,7.72
2022-09-21T00:33:37.584Z,6.70
2022-09-21T00:36:06.523Z,6.85
2022-09-21T00:38:35.546Z,6.80
2022-09-21T00:41:03.513Z,6.88
2022-09-21T00:43:34.343Z,6.50
2022-09-21T00:46:06.715Z,6.70
2022-09-21T00:48:35.421Z,7.25
2022-09-21T00:51:08.884Z,6.70
2022-09-21T00:53:39.538Z,6.88
2022-09-21T00:56:10.464Z,6.68
2022-09-21T00:58:44.709Z,7.25
2022-09-21T01:01:18.097Z,5.93
2022-09-21T01:03:46.784Z,6.82
2022-09-21T01:06:15.909Z,6.70
2022-09-21T01:08:44.908Z,5.70
2022-09-21T01:11:26.837Z,7.60
2022-09-21T01:14:18.928Z,6.82
2022-09-21T01:17:02.450Z,7.35
2022-09-21T01:20:08.731Z,8.13
2022-09-21T01:22:53.206Z,7.95
2022-09-21T01:25:32.190Z,7.50
2022-09-21T01:28:13.314Z,7.20
2022-09-21T01:30:48.822Z,8.15
2022-09-21T01:33:23.324Z,7.50
2022-09-21T01:35:56.217Z,6.80
2022-09-21T01:38:28.325Z,7.93
2022-09-21T01:41:00.263Z,6.82
2022-09-21T01:43:33.383Z,6.78
2022-09-21T01:46:05.030Z,6.50
2022-09-21T01:48:36.172Z,7.07
2022-09-21T01:51:08.350Z,6.65
2022-09-21T01:53:39.474Z,6.45
2022-09-21T01:56:12.785Z,8.05
2022-09-21T01:58:45.995Z,7.03
2022-09-21T02:01:19.478Z,7.88
2022-09-21T02:03:51.058Z,7.80
2022-09-21T02:06:20.118Z,7.32
2022-09-21T02:08:48.574Z,7.07
2022-09-21T02:11:16.464Z,7.95
2022-09-21T02:13:47.980Z,7.22
2022-09-21T02:16:32.267Z,7.65
2022-09-21T02:19:12.293Z,7.53
2022-09-21T02:21:53.008Z,7.10
2022-09-21T02:24:29.754Z,7.55
2022-09-21T02:27:04.874Z,7.82
2022-09-21T02:29:39.952Z,7.07
2022-09-21T02:32:13.316Z,7.07
2022-09-21T02:34:46.841Z,6.85
2022-09-21T02:37:23.254Z,7.63
2022-09-21T02:39:59.383Z,7.63
2022-09-21T02:42:30.733Z,7.85
2022-09-21T02:45:06.109Z,8.68
2022-09-21T02:47:42.053Z,7.10
2022-09-21T02:50:15.191Z,7.18
2022-09-21T02:52:45.175Z,8.07
2022-09-21T02:55:16.399Z,8.05
2022-09-21T02:57:44.906Z,7.47
2022-09-21T03:00:13.709Z,6.43
2022-09-21T03:02:45.015Z,7.10
2022-09-21T03:05:14.541Z,7.63
2022-09-21T03:07:42.397Z,6.93
2022-09-21T03:10:10.942Z,7.70
2022-09-21T03:12:38.787Z,7.20
2022-09-21T03:15:07.641Z,7.22
2022-09-21T03:17:35.494Z,7.10
2022-09-21T03:20:05.207Z,7.18
2022-09-21T03:22:33.090Z,6.63
2022-09-21T03:25:00.945Z,7.43
2022-09-21T03:27:28.773Z,7.93
2022-09-21T03:30:00.037Z,7.10
2022-09-21T03:32:29.931Z,6.63
2022-09-21T03:34:57.868Z,6.47
2022-09-21T03:37:27.113Z,7.60
2022-09-21T03:39:54.923Z,7.57
2022-09-21T03:42:22.800Z,7.38
2022-09-21T03:44:50.643Z,7.45
2022-09-21T03:47:18.460Z,7.72
2022-09-21T03:49:46.338Z,7.75
2022-09-21T03:52:14.163Z,8.18
2022-09-21T03:54:43.351Z,7.07
2022-09-21T03:57:11.166Z,7.57
2022-09-21T03:59:39.027Z,8.75
2022-09-21T04:02:06.892Z,6.60
2022-09-21T04:04:34.850Z,8.57
2022-09-21T04:07:02.670Z,8.25
2022-09-21T04:09:31.339Z,7.72
2022-09-21T04:12:00.684Z,8.60
2022-09-21T04:14:29.085Z,7.53
2022-09-21T04:16:57.212Z,8.48
2022-09-21T04:19:25.160Z,7.65
2022-09-21T04:21:53.142Z,9.35
2022-09-21T04:24:20.966Z,9.38
2022-09-21T04:26:48.858Z,8.40
2022-09-21T04:29:18.175Z,9.10
2022-09-21T04:31:45.994Z,8.50
2022-09-21T04:34:14.754Z,8.27
2022-09-21T04:36:43.572Z,8.38
2022-09-21T04:39:11.390Z,8.82
2022-09-21T04:41:39.227Z,8.45
2022-09-21T04:44:07.137Z,8.50
2022-09-21T04:46:36.337Z,10.70
2022-09-21T04:49:04.210Z,9.68
2022-09-21T04:51:32.431Z,9.07
2022-09-21T04:54:00.481Z,8.00
2022-09-21T04:56:28.361Z,9.10
2022-09-21T04:58:56.213Z,7.47
2022-09-21T05:01:24.151Z,7.85
2022-09-21T05:03:53.508Z,8.00
2022-09-21T05:06:21.397Z,8.73
2022-09-21T05:09:06.803Z,7.15
2022-09-21T05:11:34.667Z,7.88
2022-09-21T05:14:02.460Z,7.88
2022-09-21T05:16:30.287Z,8.05
2022-09-21T05:18:59.578Z,8.52
2022-09-21T05:21:27.685Z,7.88
2022-09-21T05:23:55.946Z,8.27
2022-09-21T05:26:24.033Z,8.60
2022-09-21T05:28:52.519Z,8.60
2022-09-21T05:31:37.954Z,7.57
2022-09-21T05:34:22.185Z,8.30
2022-09-21T05:36:55.707Z,8.00
2022-09-21T05:39:24.084Z,8.02
2022-09-21T05:41:52.463Z,8.23
2022-09-21T05:44:21.565Z,8.07
2022-09-21T05:46:56.530Z,8.25
2022-09-21T05:49:41.355Z,8.27
2022-09-21T05:52:19.571Z,6.63
2022-09-21T05:57:30.837Z,7.70
2022-09-21T06:00:08.459Z,8.05
2022-09-21T06:02:54.396Z,7.55
2022-09-21T06:05:24.702Z,7.45
2022-09-21T06:07:52.684Z,7.68
2022-09-21T06:10:20.564Z,7.90
2022-09-21T06:12:48.431Z,7.18
2022-09-21T06:15:17.061Z,7.53
2022-09-21T06:17:44.901Z,6.63
2022-09-21T06:20:12.767Z,6.75
2022-09-21T06:22:41.946Z,6.07
2022-09-21T06:25:10.061Z,6.93
2022-09-21T06:27:37.886Z,5.68
2022-09-21T06:30:06.714Z,6.15
2022-09-21T06:32:34.549Z,6.07
2022-09-21T06:35:02.365Z,6.30
2022-09-21T06:37:30.164Z,6.82
2022-09-21T06:39:59.421Z,5.38
2022-09-21T06:42:28.254Z,5.88
2022-09-21T06:44:56.094Z,6.35
2022-09-21T06:47:23.920Z,5.93
2022-09-21T06:49:53.895Z,6.07
2022-09-21T06:52:21.714Z,7.95
2022-09-21T06:54:49.546Z,6.32
2022-09-21T06:57:18.741Z,6.53
2022-09-21T06:59:46.806Z,6.35
2022-09-21T07:02:14.769Z,6.00
2022-09-21T07:04:42.997Z,6.93
2022-09-21T07:07:10.850Z,6.25
2022-09-21T07:12:29.397Z,6.53
2022-09-21T07:14:57.268Z,6.50
2022-09-21T07:17:25.065Z,6.63
2022-09-21T07:19:52.905Z,5.78
2022-09-21T07:22:20.729Z,5.40
2022-09-21T07:24:48.550Z,5.13
2022-09-21T07:27:16.411Z,5.50
2022-09-21T07:29:45.576Z,6.05
2022-09-21T07:32:13.792Z,5.07
2022-09-21T07:34:41.652Z,5.57
2022-09-21T07:37:09.544Z,4.72
2022-09-21T07:39:38.836Z,3.70
2022-09-21T07:42:07.061Z,4.57
2022-09-21T07:44:35.162Z,4.25
2022-09-21T07:47:04.432Z,2.90
2022-09-21T07:49:32.363Z,2.72
2022-09-21T07:52:03.894Z,3.05
2022-09-21T07:54:34.424Z,2.83
2022-09-21T07:57:19.993Z,2.30
2022-09-21T07:59:48.486Z,2.30
2022-09-21T08:02:17.686Z,2.10
2022-09-21T08:04:45.672Z,2.33
2022-09-21T08:07:13.518Z,2.70
2022-09-21T08:09:41.734Z,2.55
2022-09-21T08:12:11.058Z,2.88
2022-09-21T08:14:38.913Z,2.38
2022-09-21T08:17:06.765Z,2.92
2022-09-21T08:19:36.284Z,2.85
2022-09-21T08:22:04.143Z,2.80
2022-09-21T08:24:33.058Z,2.80
2022-09-21T08:27:01.048Z,2.50
2022-09-21T08:29:30.206Z,2.65
2022-09-21T08:31:58.532Z,2.85
2022-09-21T08:34:26.424Z,2.88
2022-09-21T08:36:56.045Z,2.70
2022-09-21T08:39:24.541Z,3.03
2022-09-21T08:42:05.704Z,2.60
2022-09-21T08:44:41.672Z,2.80
2022-09-21T08:47:15.401Z,2.38
2022-09-21T08:49:50.277Z,2.50
2022-09-21T08:52:21.784Z,2.67
2022-09-21T08:54:55.924Z,2.00
2022-09-21T08:57:29.663Z,2.10
2022-09-21T08:59:58.082Z,2.42
2022-09-21T09:02:41.505Z,2.05
2022-09-21T09:05:26.954Z,2.88
2022-09-21T09:08:36.726Z,1.30
2022-09-21T09:11:17.795Z,1.40
2022-09-21T09:13:59.903Z,1.17
2022-09-21T09:16:37.633Z,1.25
2022-09-21T09:19:16.608Z,1.15
2022-09-21T09:21:46.752Z,1.40
2022-09-21T09:24:20.422Z,1.73
2022-09-21T09:26:54.450Z,1.40
2022-09-21T09:29:28.876Z,1.48
2022-09-21T09:31:59.122Z,1.45
2022-09-21T09:34:33.134Z,0.85
2022-09-21T09:37:10.045Z,1.17
2022-09-21T09:39:38.953Z,1.48
2022-09-21T09:42:29.105Z,1.10
2022-09-21T09:45:45.137Z,1.30
2022-09-21T09:48:30.866Z,0.90
2022-09-21T09:50:59.562Z,1.00
2022-09-21T09:53:28.317Z,1.30
2022-09-21T09:55:57.865Z,0.95
2022-09-21T09:58:42.670Z,0.75
2022-09-21T10:01:30.946Z,0.77
2022-09-21T10:04:07.999Z,1.08
2022-09-21T10:06:36.732Z,1.13
2022-09-21T10:09:20.344Z,1.00
2022-09-21T10:11:49.177Z,1.05
2022-09-21T10:14:21.786Z,0.93
2022-09-21T10:16:52.610Z,1.13
2022-09-21T10:19:24.275Z,1.05
2022-09-21T10:21:58.231Z,1.42
2022-09-21T10:24:29.198Z,1.67
2022-09-21T10:27:03.122Z,1.20
2022-09-21T10:29:33.862Z,0.98
2022-09-21T10:32:04.004Z,1.48
2022-09-21T10:34:34.609Z,1.08
2022-09-21T10:37:04.138Z,1.42
2022-09-21T10:39:33.448Z,0.95
2022-09-21T10:42:05.784Z,1.10
2022-09-21T10:44:40.233Z,0.90
2022-09-21T10:47:19.146Z,1.50
2022-09-21T10:49:51.249Z,1.42
2022-09-21T10:52:22.159Z,1.10
2022-09-21T10:54:53.071Z,1.25
2022-09-21T10:57:23.790Z,2.03
2022-09-21T10:59:52.163Z,1.25
2022-09-21T11:02:35.290Z,1.40
2022-09-21T11:05:12.471Z,1.17
2022-09-21T11:07:46.627Z,0.90
2022-09-21T11:10:22.098Z,1.20
2022-09-21T11:13:01.458Z,1.50
2022-09-21T11:15:41.150Z,1.05
2022-09-21T11:18:19.870Z,1.40
2022-09-21T11:20:53.836Z,1.05
2022-09-21T11:23:44.180Z,1.35
2022-09-21T11:26:19.487Z,0.98
2022-09-21T11:28:52.147Z,1.40
2022-09-21T11:31:38.273Z,1.20
2022-09-21T11:34:41.811Z,1.42
2022-09-21T11:37:20.665Z,1.88
2022-09-21T11:40:09.429Z,1.60
2022-09-21T11:45:27.753Z,1.40
2022-09-21T11:48:09.539Z,1.48
2022-09-21T11:53:38.270Z,1.02
2022-09-21T11:56:19.841Z,1.13
2022-09-21T11:58:53.807Z,1.40
2022-09-21T12:01:39.966Z,1.20
2022-09-21T12:04:31.933Z,1.20
2022-09-21T12:07:15.015Z,0.90
2022-09-21T12:10:22.710Z,0.75
2022-09-21T12:12:55.626Z,1.10
2022-09-21T12:15:31.625Z,0.80
2022-09-21T12:18:08.739Z,1.00
2022-09-21T12:20:46.990Z,0.80
2022-09-21T12:23:19.903Z,0.88
2022-09-21T12:25:53.891Z,0.98
2022-09-21T12:28:25.465Z,1.33
2022-09-21T12:31:00.782Z,1.00
2022-09-21T12:33:36.682Z,0.95
2022-09-21T12:36:10.623Z,0.60
2022-09-21T12:38:44.649Z,0.50
2022-09-21T12:41:19.828Z,0.60
2022-09-21T12:43:52.198Z,0.80
2022-09-21T12:46:24.974Z,0.52
2022-09-21T12:48:53.555Z,0.60
2022-09-21T12:51:25.670Z,0.65
2022-09-21T12:53:56.303Z,0.60
2022-09-21T12:56:37.488Z,0.50
2022-09-21T12:59:18.113Z,0.65
2022-09-21T13:01:56.967Z,0.50
2022-09-21T13:04:47.669Z,1.00
2022-09-21T13:07:36.746Z,0.60
2022-09-21T13:10:16.582Z,0.70
2022-09-21T13:12:48.754Z,0.77
2022-09-21T13:15:27.120Z,0.82
2022-09-21T13:18:04.269Z,0.50
2022-09-21T13:20:38.337Z,0.70
2022-09-21T13:23:06.589Z,0.90
2022-09-21T13:25:37.636Z,0.43
2022-09-21T13:28:19.881Z,1.02
2022-09-21T13:30:49.155Z,0.68
2022-09-21T13:33:38.769Z,0.88
2022-09-21T13:36:26.416Z,1.05
2022-09-21T13:39:04.935Z,0.80
2022-09-21T13:41:58.848Z,1.00
2022-09-21T13:44:42.206Z,0.77
2022-09-21T13:49:53.236Z,0.50
2022-09-21T13:52:30.496Z,0.70
2022-09-21T13:55:01.313Z,0.70
2022-09-21T13:57:36.822Z,0.70
2022-09-21T14:00:35.665Z,0.80
2022-09-21T14:03:06.675Z,0.80
2022-09-21T14:05:40.249Z,0.93
2022-09-21T14:08:25.394Z,0.88
2022-09-21T14:10:56.244Z,0.70
2022-09-21T14:13:29.435Z,0.80
2022-09-21T14:16:44.593Z,0.68
2022-09-21T14:19:45.650Z,0.77
2022-09-21T14:22:34.554Z,1.00
2022-09-21T14:27:53.661Z,2.03
2022-09-21T14:30:23.563Z,1.15
2022-09-21T14:33:02.331Z,0.90
2022-09-21T14:35:34.111Z,0.57
2022-09-21T14:38:05.252Z,0.77
2022-09-21T14:40:36.855Z,1.00
2022-09-21T14:43:09.609Z,1.30
2022-09-21T14:46:04.722Z,0.80
2022-09-21T14:48:43.418Z,0.82
2022-09-21T14:51:19.078Z,0.88
2022-09-21T14:54:03.889Z,0.70
2022-09-21T14:56:44.993Z,0.60
2022-09-21T14:59:35.697Z,1.13
2022-09-21T15:02:15.364Z,0.80
2022-09-21T15:04:55.019Z,1.00
2022-09-21T15:07:52.829Z,0.85
2022-09-21T15:10:43.070Z,0.60
2022-09-21T15:13:41.030Z,0.90
2022-09-21T15:16:21.824Z,0.95
2022-09-21T15:18:51.433Z,1.35
2022-09-21T15:21:27.240Z,0.88
2022-09-21T15:23:55.447Z,1.00
2022-09-21T15:26:26.618Z,1.00
2022-09-21T15:29:11.762Z,0.93
2022-09-21T15:31:42.319Z,0.70
2022-09-21T15:34:11.867Z,1.20
2022-09-21T15:36:42.843Z,1.08
2022-09-21T15:39:23.917Z,0.90
2022-09-21T15:42:06.903Z,0.60
2022-09-21T15:44:36.884Z,1.30
2022-09-21T15:47:08.407Z,1.05
2022-09-21T15:49:38.088Z,0.90
2022-09-21T15:52:14.232Z,1.10
2022-09-21T15:54:45.158Z,0.82
2022-09-21T15:57:35.471Z,0.88
2022-09-21T16:00:08.313Z,0.93
2022-09-21T16:02:40.263Z,1.00
2022-09-21T16:05:16.371Z,1.33
2022-09-21T16:07:47.264Z,1.40
2022-09-21T16:10:37.528Z,1.08
2022-09-21T16:13:31.310Z,0.65
2022-09-21T16:16:02.400Z,1.00
2022-09-21T16:18:35.150Z,0.90
2022-09-21T16:21:14.656Z,1.10
2022-09-21T16:23:44.104Z,1.15
2022-09-21T16:26:21.709Z,0.95
2022-09-21T16:28:50.382Z,1.05
2022-09-21T16:31:30.855Z,0.75
2022-09-21T16:34:20.266Z,0.80
2022-09-21T16:36:50.144Z,0.88
2022-09-21T16:39:21.084Z,1.13
2022-09-21T16:41:52.409Z,1.23
2022-09-21T16:44:22.654Z,1.10
2022-09-21T16:46:54.767Z,1.20
2022-09-21T16:49:28.028Z,0.95
2022-09-21T16:51:58.434Z,1.20
2022-09-21T16:54:28.479Z,1.60
2022-09-21T16:56:58.650Z,1.17
2022-09-21T16:59:26.896Z,1.20
2022-09-21T17:01:57.002Z,1.13
2022-09-21T17:04:30.912Z,0.98
2022-09-21T17:06:59.437Z,1.05
2022-09-21T17:09:32.219Z,0.90
2022-09-21T17:12:01.589Z,1.67
2022-09-21T17:14:35.040Z,1.20
2022-09-21T17:17:05.650Z,1.50
2022-09-21T17:19:34.737Z,1.27
2022-09-21T17:22:04.153Z,1.50
2022-09-21T17:24:49.671Z,1.40
2022-09-21T17:27:20.879Z,1.23
2022-09-21T17:29:49.496Z,1.30
2022-09-21T17:32:20.238Z,1.55
2022-09-21T17:34:50.149Z,1.50
2022-09-21T17:37:18.058Z,1.70
2022-09-21T17:39:47.278Z,1.83
2022-09-21T17:42:19.054Z,1.40
2022-09-21T17:45:03.966Z,1.40
2022-09-21T17:47:33.896Z,1.63
2022-09-21T17:50:11.620Z,1.38
2022-09-21T17:52:57.912Z,1.52
2022-09-21T17:55:27.830Z,1.30
2022-09-21T17:58:19.109Z,1.50
2022-09-21T18:00:52.658Z,1.17
2022-09-21T18:03:22.998Z,1.55
2022-09-21T18:05:52.887Z,1.88
2022-09-21T18:08:21.142Z,1.60
2022-09-21T18:11:01.784Z,1.73
2022-09-21T18:13:38.121Z,1.10
2022-09-21T18:16:23.120Z,1.98
2022-09-21T18:19:07.431Z,1.48
2022-09-21T18:21:38.704Z,1.33
2022-09-21T18:24:20.057Z,1.90
2022-09-21T18:26:52.211Z,2.17
2022-09-21T18:29:46.227Z,2.03
2022-09-21T18:32:29.343Z,2.50
2022-09-21T18:35:13.285Z,1.55
2022-09-21T18:37:51.475Z,1.58
2022-09-21T18:43:00.089Z,1.38
2022-09-21T18:45:31.850Z,1.75
2022-09-21T18:48:15.854Z,1.30
2022-09-21T18:50:51.268Z,1.40
2022-09-21T18:53:27.983Z,1.48
2022-09-21T18:55:56.906Z,2.20
2022-09-21T18:58:26.668Z,1.45
2022-09-21T19:00:54.898Z,1.80
2022-09-21T19:03:23.412Z,1.90
2022-09-21T19:06:09.627Z,2.08
2022-09-21T19:08:44.346Z,2.00
2022-09-21T19:11:18.422Z,1.95
2022-09-21T19:13:54.293Z,1.50
2022-09-21T19:16:28.497Z,2.15
2022-09-21T19:19:06.738Z,1.67
2022-09-21T19:24:15.462Z,1.70
2022-09-21T19:26:50.942Z,1.63
2022-09-21T19:29:41.589Z,2.00
2022-09-21T19:32:15.687Z,1.83
2022-09-21T19:34:44.550Z,1.60
2022-09-21T19:37:12.611Z,1.48
2022-09-21T19:39:41.257Z,1.92
2022-09-21T19:42:18.354Z,2.00
2022-09-21T19:44:58.861Z,1.90
2022-09-21T19:47:30.301Z,2.28
2022-09-21T19:50:07.658Z,2.03
2022-09-21T19:52:37.060Z,2.30
2022-09-21T19:55:25.098Z,2.05
2022-09-21T19:58:11.661Z,1.93
2022-09-21T20:00:43.728Z,2.78
2022-09-21T20:03:17.629Z,2.08
2022-09-21T20:05:51.790Z,2.10
2022-09-21T20:08:25.175Z,2.50
2022-09-21T20:11:06.661Z,2.50
2022-09-21T20:13:55.122Z,2.30
2022-09-21T20:16:37.189Z,2.95
2022-09-21T20:19:14.664Z,2.90
2022-09-21T20:21:45.096Z,2.50
2022-09-21T20:24:21.201Z,2.50
2022-09-21T20:26:51.022Z,2.38
2022-09-21T20:29:19.520Z,2.55
2022-09-21T20:31:51.733Z,2.42
2022-09-21T20:34:19.746Z,2.78
2022-09-21T20:36:47.805Z,2.30
2022-09-21T20:39:15.726Z,2.72
2022-09-21T20:41:43.593Z,2.60
2022-09-21T20:44:14.288Z,2.47
2022-09-21T20:46:42.125Z,1.95
2022-09-21T20:49:15.258Z,2.08
2022-09-21T20:51:43.099Z,2.15
2022-09-21T20:54:11.392Z,2.17
2022-09-21T20:56:39.198Z,2.70
2022-09-21T20:59:07.060Z,2.55
2022-09-21T21:01:35.146Z,2.60
2022-09-21T21:04:03.845Z,3.25
2022-09-21T21:06:34.027Z,2.85
2022-09-21T21:09:02.139Z,2.60
2022-09-21T21:11:30.233Z,3.30
2022-09-21T21:13:58.864Z,3.08
2022-09-21T21:16:26.729Z,2.75
2022-09-21T21:18:55.051Z,3.20
2022-09-21T21:21:24.650Z,2.92
2022-09-21T21:24:26.284Z,3.20
2022-09-21T21:27:02.781Z,2.90
2022-09-21T21:29:31.987Z,3.25
2022-09-21T21:32:00.581Z,3.33
2022-09-21T21:34:29.171Z,3.10
2022-09-21T21:36:56.978Z,2.95
2022-09-21T21:39:26.211Z,3.28
2022-09-21T21:41:53.991Z,3.42
2022-09-21T21:44:22.063Z,3.55
2022-09-21T21:46:51.240Z,3.40
2022-09-21T21:49:19.060Z,3.10
2022-09-21T21:51:49.096Z,3.42
2022-09-21T21:54:18.289Z,4.13
2022-09-21T21:56:47.501Z,3.50
2022-09-21T21:59:17.953Z,3.40
2022-09-21T22:01:46.317Z,3.33
2022-09-21T22:04:14.726Z,3.67
2022-09-21T22:06:42.858Z,3.92
2022-09-21T22:09:12.086Z,3.90
2022-09-21T22:11:40.168Z,4.40
2022-09-21T22:14:11.533Z,3.97
2022-09-21T22:16:39.543Z,4.75
2022-09-21T22:19:08.967Z,4.15
2022-09-21T22:21:41.227Z,4.00
2022-09-21T22:24:10.446Z,4.28
2022-09-21T22:26:40.109Z,8.35
2022-09-21T22:29:10.786Z,6.07
2022-09-21T22:31:41.332Z,4.40
2022-09-21T22:34:09.995Z,4.53
2022-09-21T22:36:38.537Z,4.05
2022-09-21T22:39:07.669Z,5.57
2022-09-21T22:41:37.196Z,4.28
2022-09-21T22:44:05.126Z,4.32
2022-09-21T22:46:35.161Z,3.63
2022-09-21T22:49:03.344Z,4.90
2022-09-21T22:51:31.671Z,4.63
2022-09-21T22:53:59.724Z,4.68
2022-09-21T22:56:29.886Z,4.57
2022-09-21T22:58:59.859Z,5.45
2022-09-21T23:01:29.327Z,4.65
2022-09-21T23:04:00.454Z,4.45
2022-09-21T23:06:31.754Z,4.78
2022-09-21T23:09:00.383Z,4.72
2022-09-21T23:11:30.285Z,4.55
2022-09-21T23:13:59.208Z,4.50
2022-09-21T23:16:29.490Z,4.65
2022-09-21T23:18:59.705Z,4.85
2022-09-21T23:21:30.236Z,4.43
2022-09-21T23:24:00.472Z,4.55
2022-09-21T23:26:30.153Z,4.55
2022-09-21T23:28:59.721Z,5.32
2022-09-21T23:31:28.052Z,4.72
2022-09-21T23:33:58.621Z,4.20
2022-09-21T23:36:28.357Z,4.28
2022-09-21T23:38:56.618Z,4.38
2022-09-21T23:41:26.377Z,4.30
2022-09-21T23:43:54.554Z,4.15
2022-09-21T23:46:24.524Z,4.40
2022-09-21T23:48:52.960Z,4.45
2022-09-21T23:51:22.707Z,4.40
2022-09-21T23:53:50.822Z,3.88
2022-09-21T23:56:20.230Z,4.28
2022-09-21T23:58:48.508Z,4.40
